Portada
METAR-TAF:

METAR-TAF

Aeropuertos :

Jartum, Sudán

Aeropuerto Internacional de Jartum

latitud: 15-36N, longitud: 032-33E, altitud: 382 m

Observación

El informe se hizo hace 23 minutos, a las 00:00 UTC
Viento 9 kt del norte-noroeste
Temperatura 28°C
Humedad 25%
Presión 1010 hPa
Visibilidad 10 km o más
sin nubes por debajo de 1500 m y sin presencia de cumulonimbus.

METAR: HSSS 200000Z 34009KT CAVOK 28/06 Q1010 NOSIG

Hora: 03:23 (00:23 UTC)

Pronóstico

El informe se hizo hace 1 hora y 23 minutos, a las 23:00 UTC
Pronóstico válido del 20 a las 00 UTC al 21 a las 06 UTC
Viento 8 kt del norte con ráfagas de 20 kt
Visibilidad 10 km o más
sin nubes por debajo de 1500 m y sin presencia de cumulonimbus.
Temporalmente
del 20 a las 04 UTC al 20 a las 08 UTC
Visibilidad: 6000 m
Cielo despejado

TAF: HSSS 192300Z 2000/2106 36008G20KT CAVOK TEMPO 2004/2008 6000 SKC

Observaciones y pronósticos meteorológicos de más de 4000 aeropuertos (mensajes METAR y TAF).

Los puntos amarillos y rojos representan las estaciones disponibles.

Ponga el ratón en el punto deseado para ver el nombre de la estación.

Haga clic para ver las observaciones y los pronósticos meteorológicos.

Para cambiar el mapa : haga clic en los botones verdes con una cruz de color negro para hacer un zoom, en el botón verde con un guión para alejar o en las flechas verdes para mapas adyacentes.


METAR-TAF: